Time;durP1;ratioP1;P1;durP2;ratioP2;P2;SDS_P1;SDS_P2;PMS_P1;PMS_P2;Temp;Humidity;BMP_temperature;BMP_pressure;BME280_temperature;BME280_humidity;BME280_pressure;Samples;Min_cycle;Max_cycle;Signal;HPM_P1;HPM_P2
2023/07/07 00:00:42;;;;;;;14.70;7.80;;;;;;;12.62;100.00;99430.35;273183;1257;22402;-80
2023/07/07 00:07:06;;;;;;;13.70;8.60;;;;;;;12.55;100.00;99433.72;274016;1256;22382;-81
2023/07/07 00:13:07;;;;;;;10.70;7.60;;;;;;;12.51;100.00;99441.37;273944;1250;23477;-82
2023/07/07 00:19:36;;;;;;;12.40;7.40;;;;;;;12.50;100.00;99431.33;273301;1266;22792;-81
2023/07/07 00:25:41;;;;;;;15.40;8.10;;;;;;;12.46;100.00;99437.95;272750;1254;22410;-79
2023/07/07 00:31:42;;;;;;;11.60;7.80;;;;;;;12.41;100.00;99438.54;273810;1255;22248;-79
2023/07/07 00:37:52;;;;;;;14.60;8.00;;;;;;;12.31;100.00;99442.10;273748;1257;23672;-81
2023/07/07 00:44:14;;;;;;;11.10;7.90;;;;;;;12.28;100.00;99449.75;273611;1266;24359;-79
2023/07/07 00:50:43;;;;;;;13.50;7.60;;;;;;;12.21;100.00;99458.61;273718;1266;22407;-81
2023/07/07 00:56:48;;;;;;;13.30;8.50;;;;;;;12.14;100.00;99470.30;273199;1266;22225;-79
2023/07/07 01:02:56;;;;;;;13.60;7.50;;;;;;;12.07;100.00;99466.98;273653;1257;22409;-80
2023/07/07 01:09:08;;;;;;;15.80;6.70;;;;;;;12.01;100.00;99466.21;273657;1266;23128;-80
2023/07/07 01:15:18;;;;;;;16.50;7.90;;;;;;;11.98;100.00;99470.64;273659;1266;23660;-81
2023/07/07 01:21:48;;;;;;;11.50;6.90;;;;;;;12.03;100.00;99473.13;273528;1264;22200;-79
2023/07/07 01:28:07;;;;;;;12.80;7.00;;;;;;;12.08;100.00;99470.99;273655;1257;23109;-79
2023/07/07 01:34:15;;;;;;;15.80;7.80;;;;;;;12.06;100.00;99475.67;273443;1257;22228;-79
2023/07/07 01:40:20;;;;;;;10.50;6.90;;;;;;;11.98;100.00;99477.61;273369;1263;22412;-79
2023/07/07 01:46:50;;;;;;;10.00;7.30;;;;;;;11.88;100.00;99480.46;272858;1261;22397;-79
2023/07/07 01:52:57;;;;;;;12.70;6.50;;;;;;;11.76;100.00;99480.23;272788;1266;22496;-79
2023/07/07 01:59:00;;;;;;;14.90;7.30;;;;;;;11.67;100.00;99487.05;273685;1266;22279;-79
2023/07/07 02:05:01;;;;;;;14.60;7.80;;;;;;;11.66;100.00;99489.79;272033;1267;22578;-78
2023/07/07 02:11:16;;;;;;;12.30;7.00;;;;;;;11.62;100.00;99489.09;273065;1266;22515;-79
2023/07/07 02:17:18;;;;;;;12.10;7.10;;;;;;;11.62;100.00;99495.97;272436;1266;23622;-78
2023/07/07 02:23:22;;;;;;;11.00;6.70;;;;;;;11.58;100.00;99499.98;272018;1253;23572;-78
2023/07/07 02:29:23;;;;;;;11.30;6.20;;;;;;;11.50;100.00;99508.16;272553;1266;23185;-79
2023/07/07 02:35:25;;;;;;;13.00;7.50;;;;;;;11.42;100.00;99509.11;272624;1266;22371;-80
2023/07/07 02:41:26;;;;;;;18.00;7.40;;;;;;;11.39;100.00;99508.61;273735;1254;22370;-79
2023/07/07 02:47:28;;;;;;;14.10;6.80;;;;;;;11.34;100.00;99507.05;273649;1256;22470;-79
2023/07/07 02:53:47;;;;;;;9.20;6.50;;;;;;;11.29;100.00;99510.81;273136;1266;23701;-81
2023/07/07 02:59:48;;;;;;;10.40;7.10;;;;;;;11.22;100.00;99516.95;272811;1266;22781;-81
2023/07/07 03:05:49;;;;;;;10.00;6.50;;;;;;;11.17;100.00;99515.27;273429;1263;22213;-79
2023/07/07 03:11:50;;;;;;;12.70;7.60;;;;;;;11.25;100.00;99522.95;272637;1266;96361;-80
2023/07/07 03:18:08;;;;;;;;;;;;;;;11.36;100.00;99527.52;270340;1257;23630;-80
2023/07/07 03:24:10;;;;;;;12.50;7.30;;;;;;;11.35;100.00;99531.10;270955;1266;23657;-79
2023/07/07 03:30:13;;;;;;;9.60;6.60;;;;;;;11.38;100.00;99530.27;271302;1266;22461;-80
2023/07/07 03:36:32;;;;;;;12.60;7.00;;;;;;;11.38;100.00;99537.16;272155;1266;23301;-77
2023/07/07 03:42:34;;;;;;;11.40;7.30;;;;;;;11.39;100.00;99536.95;273664;1260;22971;-78
2023/07/07 03:48:59;;;;;;;12.00;7.00;;;;;;;11.43;100.00;99533.52;273481;1266;22419;-78
2023/07/07 03:55:04;;;;;;;9.80;6.90;;;;;;;11.51;100.00;99534.89;273795;1256;22293;-79
2023/07/07 04:01:09;;;;;;;9.50;6.10;;;;;;;11.63;100.00;99544.96;273705;1265;22590;-79
2023/07/07 04:07:28;;;;;;;8.40;6.60;;;;;;;11.82;100.00;99549.98;272535;1266;23982;-78
2023/07/07 04:13:31;;;;;;;13.20;7.40;;;;;;;11.97;100.00;99553.41;273968;1253;23247;-78
2023/07/07 04:19:51;;;;;;;12.10;8.20;;;;;;;12.11;100.00;99557.52;273859;1266;23067;-77
2023/07/07 04:25:53;;;;;;;14.30;7.10;;;;;;;12.28;100.00;99557.83;273714;1258;22525;-80
2023/07/07 04:32:11;;;;;;;10.30;6.30;;;;;;;12.40;100.00;99555.70;273725;1266;23187;-80
2023/07/07 04:38:12;;;;;;;10.30;6.60;;;;;;;12.52;100.00;99558.21;273275;1264;22237;-80
2023/07/07 04:44:17;;;;;;;15.20;7.60;;;;;;;12.65;100.00;99560.64;273126;1250;22456;-82
2023/07/07 04:50:38;;;;;;;12.60;7.10;;;;;;;12.81;100.00;99560.20;273117;1266;23721;-80
2023/07/07 04:56:49;;;;;;;9.60;7.30;;;;;;;12.97;100.00;99563.29;272573;1266;22866;-81
2023/07/07 05:02:55;;;;;;;14.20;7.40;;;;;;;13.16;100.00;99569.63;273611;1266;23265;-80
2023/07/07 05:08:57;;;;;;;9.60;6.70;;;;;;;13.33;100.00;99573.95;273812;1266;23604;-81
2023/07/07 05:15:04;;;;;;;10.60;7.00;;;;;;;13.50;100.00;99575.75;273553;1265;22604;-82
2023/07/07 05:21:07;;;;;;;10.80;7.20;;;;;;;13.69;100.00;99579.20;271918;1266;23477;-78
2023/07/07 05:27:11;;;;;;;9.80;5.60;;;;;;;13.90;100.00;99580.86;273367;1257;22411;-79
2023/07/07 05:33:12;;;;;;;8.60;6.30;;;;;;;14.16;100.00;99585.21;273495;1266;22161;-79
2023/07/07 05:39:34;;;;;;;11.10;6.70;;;;;;;14.48;100.00;99584.54;273813;1266;22429;-79
2023/07/07 05:45:42;;;;;;;13.10;7.80;;;;;;;14.79;100.00;99585.77;273791;1258;22374;-80
2023/07/07 05:51:44;;;;;;;17.40;9.30;;;;;;;15.05;100.00;99584.90;271857;1266;22534;-80
2023/07/07 05:57:45;;;;;;;20.00;10.50;;;;;;;15.30;100.00;99590.16;273587;1265;23562;-81
2023/07/07 06:04:07;;;;;;;18.20;9.70;;;;;;;15.54;100.00;99593.23;272940;1266;23369;-80
2023/07/07 06:10:10;;;;;;;18.60;9.50;;;;;;;15.79;100.00;99596.20;271677;1266;22581;-80
2023/07/07 06:16:12;;;;;;;16.70;8.50;;;;;;;16.02;100.00;99596.98;271341;1265;24523;-80
2023/07/07 06:22:58;;;;;;;;;;;;;;;;;;;;;
2023/07/07 06:29:40;;;;;;;17.40;9.10;;;;;;;16.63;100.00;99605.23;273146;1263;22466;-80
2023/07/07 06:35:43;;;;;;;16.90;10.60;;;;;;;16.95;100.00;99607.31;273172;1266;22600;-80
2023/07/07 06:41:45;;;;;;;18.70;10.70;;;;;;;17.24;100.00;99608.98;270648;1266;22511;-82
2023/07/07 06:47:46;;;;;;;27.90;13.40;;;;;;;17.49;100.00;99616.34;273907;1266;23273;-81
2023/07/07 06:53:49;;;;;;;25.80;10.80;;;;;;;17.77;100.00;99619.62;271421;1266;24492;-81
2023/07/07 06:59:50;;;;;;;16.90;8.40;;;;;;;18.20;100.00;99620.04;273134;1266;23606;-80
2023/07/07 07:05:51;;;;;;;15.80;8.40;;;;;;;18.79;100.00;99622.82;273601;1256;22321;-81
2023/07/07 07:11:52;;;;;;;14.50;8.40;;;;;;;19.49;100.00;99630.54;273727;1266;23855;-81
2023/07/07 07:17:53;;;;;;;12.20;7.00;;;;;;;20.24;98.69;99629.34;271795;1251;25401;-80
2023/07/07 07:23:59;;;;;;;13.20;8.00;;;;;;;20.97;96.72;99628.42;272465;1258;22316;-81
2023/07/07 07:30:01;;;;;;;10.30;6.80;;;;;;;21.67;94.40;99632.70;273742;1266;23348;-80
2023/07/07 07:36:01;;;;;;;14.50;8.30;;;;;;;22.25;92.93;99633.76;273756;1267;22405;-81
2023/07/07 07:42:03;;;;;;;17.70;7.70;;;;;;;22.73;91.93;99636.29;274014;1254;22455;-81
2023/07/07 07:48:04;;;;;;;14.80;6.60;;;;;;;23.15;89.09;99636.67;273955;1266;22439;-81
2023/07/07 07:54:26;;;;;;;8.10;6.20;;;;;;;23.36;86.23;99642.05;273861;1266;22473;-81
2023/07/07 08:00:36;;;;;;;11.70;5.90;;;;;;;23.49;84.28;99646.06;274053;1256;22191;-82
2023/07/07 08:06:37;;;;;;;12.20;4.10;;;;;;;23.46;83.13;99649.11;274012;1266;22833;-81
2023/07/07 08:12:39;;;;;;;6.20;4.30;;;;;;;23.37;80.91;99650.80;272917;1259;22402;-82
2023/07/07 08:18:40;;;;;;;9.10;4.60;;;;;;;23.30;78.59;99649.52;273866;1266;23612;-81
2023/07/07 08:24:46;;;;;;;6.40;3.50;;;;;;;23.36;76.30;99653.08;270527;1266;23043;-81
2023/07/07 08:30:47;;;;;;;6.30;3.70;;;;;;;23.48;75.37;99651.44;270818;1257;22646;-80
2023/07/07 08:36:48;;;;;;;6.70;3.60;;;;;;;23.57;74.00;99648.90;270219;1266;22543;-80
2023/07/07 08:43:06;;;;;;;7.00;3.50;;;;;;;23.70;71.32;99653.93;270296;1258;22506;-81
2023/07/07 08:49:20;;;;;;;5.90;3.00;;;;;;;23.61;67.03;99652.61;269973;1266;22580;-82
2023/07/07 08:55:47;;;;;;;4.00;2.80;;;;;;;23.52;62.15;99647.77;269650;1267;22588;-81
2023/07/07 09:02:02;;;;;;;5.80;3.00;;;;;;;23.59;62.42;99644.54;270187;1266;22527;-80
2023/07/07 09:08:31;;;;;;;5.40;3.10;;;;;;;23.72;62.04;99643.47;269652;1266;22554;-81
2023/07/07 09:14:33;;;;;;;4.20;2.80;;;;;;;23.83;60.66;99647.94;269939;1257;23371;-81
2023/07/07 09:20:35;;;;;;;4.30;2.60;;;;;;;23.90;60.17;99649.70;269961;1254;22527;-81
2023/07/07 09:26:36;;;;;;;6.30;2.50;;;;;;;23.97;58.04;99651.25;272122;1257;22405;-81
2023/07/07 09:32:38;;;;;;;4.10;2.40;;;;;;;24.18;58.21;99651.58;273655;1257;23079;-81
2023/07/07 09:39:16;;;;;;;6.70;3.00;;;;;;;24.57;58.10;99647.73;273437;1266;22404;-82
2023/07/07 09:45:47;;;;;;;4.00;2.50;;;;;;;24.62;57.54;99650.45;273799;1267;22383;-81
2023/07/07 09:51:54;;;;;;;5.30;2.50;;;;;;;24.45;57.02;99651.61;269551;1256;22604;-81
2023/07/07 09:58:11;;;;;;;6.40;3.00;;;;;;;24.15;57.10;99653.77;273145;1266;23032;-82
2023/07/07 10:04:14;;;;;;;7.30;2.90;;;;;;;24.18;57.70;99654.45;273308;1266;23453;-82
2023/07/07 10:10:16;;;;;;;6.70;2.10;;;;;;;24.69;56.70;99650.62;271186;1267;22460;-81
2023/07/07 10:16:32;;;;;;;4.30;2.20;;;;;;;24.96;54.69;99652.67;272607;1266;22453;-84
2023/07/07 10:22:35;;;;;;;5.00;1.70;;;;;;;25.59;53.97;99645.22;272716;1266;22472;-80
2023/07/07 10:28:40;;;;;;;5.20;1.70;;;;;;;26.31;53.00;99633.39;273636;1257;23437;-80
2023/07/07 10:34:47;;;;;;;2.20;1.40;;;;;;;26.78;51.44;99636.32;273876;1266;22482;-81
2023/07/07 10:40:49;;;;;;;3.60;1.40;;;;;;;27.00;50.01;99632.59;273923;1266;22229;-82
2023/07/07 10:46:50;;;;;;;5.30;1.70;;;;;;;27.20;48.40;99632.56;273912;1254;22361;-83
2023/07/07 10:53:06;;;;;;;5.10;1.50;;;;;;;27.32;47.31;99629.77;273431;1266;22738;-79
2023/07/07 10:59:26;;;;;;;;;;;;;;;27.47;46.36;99623.91;273500;1260;22443;-80
2023/07/07 11:05:53;;;;;;;4.20;1.60;;;;;;;27.29;45.08;99622.27;273460;1256;22207;-78
2023/07/07 11:12:28;;;;;;;2.20;1.60;;;;;;;26.37;44.84;99626.54;273544;1266;23233;-79
2023/07/07 11:18:50;;;;;;;3.10;1.20;;;;;;;25.82;45.18;99621.48;273987;1263;22410;-79
2023/07/07 11:25:04;;;;;;;3.20;1.70;;;;;;;25.51;44.85;99625.45;272708;1267;22423;-78
2023/07/07 11:31:43;;;;;;;3.70;1.40;;;;;;;25.12;44.91;99629.76;270421;1267;24175;-81
2023/07/07 11:38:07;;;;;;;2.60;1.50;;;;;;;24.76;44.93;99632.52;270748;1267;23714;-81
2023/07/07 11:44:31;;;;;;;2.10;1.30;;;;;;;24.74;44.98;99625.66;270305;1266;24219;-82
2023/07/07 11:50:42;;;;;;;5.10;1.60;;;;;;;24.94;45.19;99619.89;271153;1266;23226;-81
2023/07/07 11:57:11;;;;;;;5.40;1.90;;;;;;;25.26;45.50;99618.66;273510;1266;22493;-81
2023/07/07 12:03:22;;;;;;;2.60;1.70;;;;;;;25.84;45.26;99607.06;273553;1266;22209;-81
2023/07/07 12:09:44;;;;;;;3.90;1.50;;;;;;;26.21;45.05;99602.71;273541;1264;22418;-81
2023/07/07 12:16:31;;;;;;;1.90;1.30;;;;;;;26.18;44.10;99609.75;273713;1266;22210;-82
2023/07/07 12:22:35;;;;;;;2.50;1.40;;;;;;;25.88;43.01;99602.87;271851;1267;22534;-79
2023/07/07 12:28:36;;;;;;;2.20;1.40;;;;;;;25.94;42.40;99597.50;271298;1267;22425;-81
2023/07/07 12:34:49;;;;;;;3.00;1.70;;;;;;;25.94;41.90;99592.61;270167;1260;22530;-81
2023/07/07 12:40:55;;;;;;;1.80;1.40;;;;;;;25.75;42.33;99587.21;273556;1258;22529;-81
2023/07/07 12:46:59;;;;;;;2.80;1.70;;;;;;;25.79;42.08;99587.07;270200;1267;22542;-81
2023/07/07 12:53:20;;;;;;;1.70;1.20;;;;;;;25.57;41.42;99595.33;269754;1266;23197;-82
2023/07/07 12:59:34;;;;;;;2.70;1.60;;;;;;;25.29;41.37;99592.28;269767;1266;22551;-80
2023/07/07 13:05:44;;;;;;;2.30;1.30;;;;;;;25.35;42.01;99587.41;270099;1266;22533;-80
2023/07/07 13:11:55;;;;;;;3.90;1.60;;;;;;;25.45;42.13;99587.50;270839;1254;22386;-81
2023/07/07 13:17:57;;;;;;;2.80;1.60;;;;;;;25.38;41.74;99596.67;271144;1266;22582;-81
2023/07/07 13:24:00;;;;;;;3.10;1.60;;;;;;;25.07;41.42;99606.09;271185;1266;23897;-80
2023/07/07 13:30:35;;;;;;;2.00;1.30;;;;;;;24.78;41.32;99607.74;270763;1258;22545;-83
2023/07/07 13:36:36;;;;;;;2.30;1.40;;;;;;;24.73;41.41;99601.55;270542;1266;22550;-81
2023/07/07 13:42:37;;;;;;;3.60;1.40;;;;;;;24.86;41.27;99598.73;270326;1257;23916;-81
2023/07/07 13:48:45;;;;;;;2.40;1.50;;;;;;;24.79;41.15;99600.94;273961;1266;23617;-80
2023/07/07 13:54:48;;;;;;;4.90;1.80;;;;;;;24.52;41.06;99599.00;274072;1266;22450;-81
2023/07/07 14:01:13;;;;;;;3.50;1.60;;;;;;;24.55;41.19;99597.18;273711;1266;22245;-80
2023/07/07 14:07:17;;;;;;;2.50;1.50;;;;;;;24.66;41.07;99598.27;273801;1266;22159;-83
2023/07/07 14:13:30;;;;;;;3.10;1.70;;;;;;;24.71;41.07;99601.93;273790;1266;22400;-80
2023/07/07 14:19:54;;;;;;;3.90;1.60;;;;;;;24.77;40.88;99595.31;271176;1266;22512;-80
2023/07/07 14:25:57;;;;;;;2.30;1.30;;;;;;;24.76;40.87;99591.66;273952;1258;22411;-81
2023/07/07 14:32:02;;;;;;;9.00;1.50;;;;;;;24.68;41.03;99592.50;273994;1266;22220;-79
2023/07/07 14:38:25;;;;;;;2.10;1.20;;;;;;;24.65;41.50;99591.17;273283;1256;22537;-80
2023/07/07 14:44:56;;;;;;;3.20;1.80;;;;;;;24.73;41.93;99587.89;273924;1266;22350;-79
2023/07/07 14:51:07;;;;;;;3.40;1.30;;;;;;;24.80;41.46;99581.04;273810;1261;22155;-81
2023/07/07 14:57:20;;;;;;;2.90;1.20;;;;;;;24.86;41.30;99577.69;273968;1266;22211;-82
2023/07/07 15:03:26;;;;;;;2.60;1.30;;;;;;;24.79;41.15;99580.12;273159;1266;22460;-83
2023/07/07 15:09:27;;;;;;;3.20;1.50;;;;;;;24.50;40.64;99583.46;269146;1266;5349174;-82
2023/07/07 15:15:28;;;;;;;3.90;1.40;;;;;;;24.26;40.89;99572.44;272201;1266;26477;-80
2023/07/07 15:21:30;;;;;;;1.60;1.20;;;;;;;24.35;40.94;99578.41;272105;1266;22345;-80
2023/07/07 15:27:31;;;;;;;1.60;1.20;;;;;;;24.43;40.51;99574.67;273474;1266;22192;-80
2023/07/07 15:33:32;;;;;;;2.70;1.60;;;;;;;24.45;40.63;99566.70;272454;1254;22444;-80
2023/07/07 15:39:33;;;;;;;4.00;1.90;;;;;;;24.47;40.58;99567.89;270796;1266;22530;-80
2023/07/07 15:46:09;;;;;;;2.40;1.50;;;;;;;24.44;40.68;99569.70;270619;1266;22742;-80
2023/07/07 15:52:39;;;;;;;3.30;1.50;;;;;;;24.33;40.38;99571.61;270637;1266;23326;-80
2023/07/07 15:58:51;;;;;;;3.20;1.40;;;;;;;24.23;40.87;99568.04;272950;1265;25300;-79
2023/07/07 16:04:53;;;;;;;4.00;1.50;;;;;;;24.13;41.40;99564.58;269855;1251;23202;-81
2023/07/07 16:10:54;;;;;;;2.70;1.30;;;;;;;24.06;41.15;99566.10;270467;1256;28071;-80
2023/07/07 16:16:55;;;;;;;3.40;1.50;;;;;;;23.98;41.69;99567.06;270601;1265;23904;-79
2023/07/07 16:22:57;;;;;;;2.30;1.80;;;;;;;23.98;41.14;99563.35;270898;1266;22529;-80
2023/07/07 16:29:34;;;;;;;;;;;;;;;;;;;;;
2023/07/07 16:36:31;;;;;;;6.50;1.60;;;;;;;24.00;40.45;99572.06;272962;1266;22426;-80
2023/07/07 16:43:01;;;;;;;5.50;1.80;;;;;;;23.97;40.18;99569.20;273570;1264;22234;-80
2023/07/07 16:49:53;;;;;;;5.00;2.20;;;;;;;23.94;40.35;99571.89;272953;1266;23222;-81
2023/07/07 16:56:47;;;;;;;3.20;1.60;;;;;;;23.87;40.72;99576.31;273737;1261;22268;-79
2023/07/07 17:02:49;;;;;;;2.80;1.90;;;;;;;23.71;41.41;99577.63;273501;1266;22567;-80
2023/07/07 17:09:36;;;;;;;1.70;1.20;;;;;;;23.58;40.91;99573.67;273510;1267;22572;-80
2023/07/07 17:16:08;;;;;;;2.90;1.80;;;;;;;23.50;41.31;99574.57;273754;1266;22390;-81
2023/07/07 17:23:20;;;;;;;;;;;;;;;;;;;;;
2023/07/07 17:30:41;;;;;;;;;;;;;;;;;;;;;
2023/07/07 17:37:06;;;;;;;;;;;;;;;;;;;;;
2023/07/07 17:44:03;;;;;;;;;;;;;;;;;;;;;
2023/07/07 17:51:09;;;;;;;;;;;;;;;;;;;;;
2023/07/07 17:57:32;;;;;;;2.90;1.70;;;;;;;22.68;43.24;99586.52;272772;1266;22464;-78
2023/07/07 18:03:38;;;;;;;3.30;2.00;;;;;;;22.57;43.66;99586.60;273471;1260;22377;-81
2023/07/07 18:09:44;;;;;;;4.90;1.90;;;;;;;22.41;44.02;99594.44;273694;1266;22243;-79
2023/07/07 18:15:46;;;;;;;4.30;2.10;;;;;;;22.26;44.54;99593.08;273823;1266;22517;-80
2023/07/07 18:21:48;;;;;;;5.60;2.20;;;;;;;22.13;44.88;99592.96;273550;1256;22461;-79
2023/07/07 18:27:49;;;;;;;4.30;2.00;;;;;;;21.96;45.41;99590.60;273288;1266;23604;-80
2023/07/07 18:33:58;;;;;;;3.20;2.10;;;;;;;21.78;46.53;99590.42;272987;1266;22439;-79
2023/07/07 18:40:07;;;;;;;4.60;2.40;;;;;;;21.54;47.08;99593.27;272986;1266;23591;-80
2023/07/07 18:46:19;;;;;;;4.10;2.60;;;;;;;21.22;47.96;99600.79;273234;1266;23095;-81
2023/07/07 18:52:20;;;;;;;6.40;2.90;;;;;;;20.97;48.88;99605.30;273530;1260;24779;-78
2023/07/07 18:58:40;;;;;;;6.80;3.00;;;;;;;20.65;50.00;99611.73;273642;1253;22322;-80
2023/07/07 19:04:41;;;;;;;6.90;3.70;;;;;;;20.31;51.32;99614.14;273641;1264;22247;-78
2023/07/07 19:10:45;;;;;;;9.30;4.30;;;;;;;20.01;52.36;99613.38;273713;1266;22672;-82
2023/07/07 19:16:50;;;;;;;12.60;6.90;;;;;;;19.71;53.46;99614.83;271968;1265;22186;-81
2023/07/07 19:22:58;;;;;;;10.30;6.90;;;;;;;19.42;55.12;99616.00;270385;1260;24825;-79
2023/07/07 19:29:07;;;;;;;14.80;7.10;;;;;;;19.14;56.41;99617.77;271655;1266;22544;-79
2023/07/07 19:35:08;;;;;;;19.80;9.50;;;;;;;18.83;56.96;99620.66;264116;1257;10001497;-79
2023/07/07 19:41:14;;;;;;;13.60;8.60;;;;;;;18.60;58.61;99621.95;272618;1266;23003;-80
2023/07/07 19:47:15;;;;;;;17.50;9.00;;;;;;;18.40;60.52;99623.34;273742;1266;22443;-80
2023/07/07 19:53:17;;;;;;;26.60;11.20;;;;;;;18.15;60.15;99628.16;273813;1266;23194;-80
2023/07/07 19:59:19;;;;;;;30.70;17.30;;;;;;;17.98;60.85;99628.32;273660;1266;22209;-81
2023/07/07 20:05:22;;;;;;;22.00;14.10;;;;;;;17.82;61.66;99629.25;273114;1260;23131;-80
2023/07/07 20:11:30;;;;;;;24.60;13.40;;;;;;;17.63;63.73;99629.95;272586;1260;25275;-79
2023/07/07 20:17:31;;;;;;;21.40;10.00;;;;;;;17.38;65.29;99636.33;273463;1266;22402;-80
2023/07/07 20:23:33;;;;;;;19.40;11.00;;;;;;;17.14;66.29;99638.35;273485;1260;23326;-79
2023/07/07 20:29:35;;;;;;;11.00;6.50;;;;;;;16.94;67.06;99643.59;272700;1257;22662;-79
2023/07/07 20:35:39;;;;;;;18.80;8.30;;;;;;;16.80;67.65;99647.11;273614;1266;22486;-80
2023/07/07 20:41:42;;;;;;;12.20;6.70;;;;;;;16.64;68.04;99654.20;273361;1256;22439;-80
2023/07/07 20:47:44;;;;;;;13.00;8.40;;;;;;;16.47;68.50;99655.97;273366;1266;22382;-79
2023/07/07 20:53:45;;;;;;;12.70;7.90;;;;;;;16.38;70.14;99656.60;273277;1256;23840;-79
2023/07/07 20:59:46;;;;;;;15.60;8.00;;;;;;;16.17;70.29;99669.33;273152;1266;24855;-79
2023/07/07 21:05:54;;;;;;;13.80;7.90;;;;;;;16.03;70.59;99674.39;273210;1266;22228;-79
2023/07/07 21:11:56;;;;;;;14.80;8.80;;;;;;;15.88;71.75;99673.20;273219;1256;22338;-80
2023/07/07 21:17:58;;;;;;;13.30;7.70;;;;;;;15.75;72.16;99671.84;273379;1266;22263;-78
2023/07/07 21:23:59;;;;;;;14.20;8.20;;;;;;;15.60;73.04;99670.89;273440;1266;22330;-78
2023/07/07 21:30:04;;;;;;;14.90;8.60;;;;;;;15.44;74.57;99678.02;273363;1266;22309;-81
2023/07/07 21:36:51;;;;;;;14.70;8.30;;;;;;;15.38;75.65;99678.09;273520;1266;22245;-80
2023/07/07 21:43:03;;;;;;;;;;;;;;;15.32;75.88;99673.95;273394;1263;22517;-78
2023/07/07 21:49:04;;;;;;;12.40;7.70;;;;;;;15.14;76.13;99676.71;273394;1256;22253;-79
2023/07/07 21:55:07;;;;;;;12.20;7.40;;;;;;;15.01;77.01;99678.33;271703;1266;22531;-80
2023/07/07 22:01:10;;;;;;;13.60;7.50;;;;;;;14.83;77.40;99675.02;273075;1256;22499;-80
2023/07/07 22:07:12;;;;;;;11.00;6.60;;;;;;;14.69;77.95;99673.38;273342;1266;22386;-79
2023/07/07 22:13:33;;;;;;;10.10;6.20;;;;;;;14.58;79.02;99676.45;273202;1263;22275;-79
2023/07/07 22:19:34;;;;;;;8.90;6.30;;;;;;;14.52;79.53;99679.17;273160;1266;22598;-79
2023/07/07 22:25:36;;;;;;;10.90;6.10;;;;;;;14.44;80.01;99673.61;272565;1266;22560;-79
2023/07/07 22:31:38;;;;;;;10.30;6.20;;;;;;;14.27;79.74;99673.26;270838;1266;22519;-79
2023/07/07 22:37:45;;;;;;;10.90;6.40;;;;;;;14.00;80.22;99674.84;271079;1263;23250;-79
2023/07/07 22:43:46;;;;;;;11.30;6.20;;;;;;;13.93;81.60;99677.38;270710;1266;22584;-79
2023/07/07 22:50:19;;;;;;;12.30;6.00;;;;;;;13.88;82.30;99678.84;273307;1266;22387;-80
2023/07/07 22:56:48;;;;;;;8.90;6.00;;;;;;;13.89;83.16;99672.79;273118;1261;22411;-81
2023/07/07 23:02:49;;;;;;;9.60;5.50;;;;;;;13.82;83.67;99672.95;273455;1266;23264;-80
2023/07/07 23:08:58;;;;;;;11.80;6.30;;;;;;;13.72;83.81;99667.05;273416;1253;22798;-80
2023/07/07 23:14:59;;;;;;;8.90;5.60;;;;;;;13.65;84.11;99666.34;272964;1259;22555;-79
2023/07/07 23:21:00;;;;;;;11.50;6.00;;;;;;;13.58;84.77;99665.73;273053;1266;22546;-79
2023/07/07 23:27:01;;;;;;;11.70;6.90;;;;;;;13.49;84.94;99668.48;273357;1266;22214;-79
2023/07/07 23:33:04;;;;;;;9.30;6.30;;;;;;;13.37;85.46;99670.31;273553;1266;22500;-80
2023/07/07 23:39:10;;;;;;;25.20;6.60;;;;;;;13.34;86.29;99674.44;272901;1266;23722;-79
2023/07/07 23:45:14;;;;;;;11.00;5.80;;;;;;;13.29;86.71;99681.63;273343;1251;22507;-79
2023/07/07 23:51:15;;;;;;;10.40;6.20;;;;;;;13.20;86.13;99683.40;273375;1257;22463;-80
2023/07/07 23:57:20;;;;;;;11.00;6.60;;;;;;;12.99;86.56;99677.55;273569;1266;24286;-79
